Time;durP1;ratioP1;P1;durP2;ratioP2;P2;SDS_P1;SDS_P2;PMS_P1;PMS_P2;Temp;Humidity;BMP_temperature;BMP_pressure;BME280_temperature;BME280_humidity;BME280_pressure;Samples;Min_cycle;Max_cycle;Signal;HPM_P1;HPM_P2
2022/09/25 00:01:57;;;;;;;10.18;3.70;;;;;;;;;;4407690;32;20095;-69
2022/09/25 00:04:22;;;;;;;10.15;4.60;;;;;;;;;;4406936;32;20044;-68
2022/09/25 00:06:48;;;;;;;;;;;;;;;;;;4406261;32;20053;-68
2022/09/25 00:09:13;;;;;;;10.88;4.32;;;;;;;;;;4406038;32;19952;-68
2022/09/25 00:11:39;;;;;;;11.18;4.40;;;;;;;;;;4405576;32;20038;-68
2022/09/25 00:14:04;;;;;;;;;;;;;;;;;;4406916;32;20027;-68
2022/09/25 00:16:30;;;;;;;11.12;4.90;;;;;;;;;;4405808;32;20001;-68
2022/09/25 00:21:40;;;;;;;13.07;4.37;;;;;;;;;;4407508;32;20075;-69
2022/09/25 00:24:05;;;;;;;;;;;;;;;;;;4393098;32;20022;-69
2022/09/25 00:26:32;;;;;;;10.88;4.05;;;;;;;;;;4406354;32;19933;-69
2022/09/25 00:29:00;;;;;;;8.80;4.30;;;;;;;;;;4407592;32;20500;-69
2022/09/25 00:31:25;;;;;;;13.77;4.37;;;;;;;;;;4406585;32;20026;-69
2022/09/25 00:33:50;;;;;;;10.00;4.12;;;;;;;;;;4406113;32;20053;-69
2022/09/25 00:36:16;;;;;;;11.45;4.82;;;;;;;;;;4407652;32;20038;-69
2022/09/25 00:38:42;;;;;;;;;;;;;;;;;;4415767;27;20076;-71
2022/09/25 00:41:07;;;;;;;10.95;4.18;;;;;;;;;;4393640;32;19967;-71
2022/09/25 00:43:33;;;;;;;;;;;;;;;;;;4407192;32;20088;-70
2022/09/25 00:46:00;;;;;;;8.52;4.28;;;;;;;;;;4393606;32;19933;-71
2022/09/25 00:48:25;;;;;;;13.75;4.50;;;;;;;;;;4406052;32;20018;-71
2022/09/25 00:50:50;;;;;;;;;;;;;;;;;;4407336;32;20094;-71
2022/09/25 00:53:19;;;;;;;9.82;4.10;;;;;;;;;;4405889;32;19975;-71
2022/09/25 00:55:45;;;;;;;13.35;4.20;;;;;;;;;;4406340;32;20500;-70
2022/09/25 00:58:10;;;;;;;;;;;;;;;;;;4406716;32;20052;-71
2022/09/25 01:00:35;;;;;;;11.95;4.47;;;;;;;;;;4405688;32;20286;-71
2022/09/25 01:03:01;;;;;;;9.80;4.62;;;;;;;;;;4392373;32;20476;-71
2022/09/25 01:05:26;;;;;;;;;;;;;;;;;;4407679;32;20325;-71
2022/09/25 01:07:54;;;;;;;12.37;4.00;;;;;;;;;;4396733;32;20334;-71
2022/09/25 01:10:20;;;;;;;10.10;3.90;;;;;;;;;;4390603;32;20030;-71
2022/09/25 01:12:47;;;;;;;7.62;4.35;;;;;;;;;;4392410;32;20057;-71
2022/09/25 01:15:13;;;;;;;12.10;4.30;;;;;;;;;;4390627;32;20031;-71
2022/09/25 01:17:57;;;;;;;10.65;4.50;;;;;;;;;;4378183;32;20350;-71
2022/09/25 01:20:32;;;;;;;10.10;4.40;;;;;;;;;;4391112;32;20437;-71
2022/09/25 01:23:09;;;;;;;7.28;4.05;;;;;;;;;;4391236;32;20102;-71
2022/09/25 01:25:40;;;;;;;6.90;3.90;;;;;;;;;;4390865;32;20026;-71
2022/09/25 01:28:08;;;;;;;11.63;4.47;;;;;;;;;;4391287;32;20023;-71
2022/09/25 01:30:38;;;;;;;13.43;4.82;;;;;;;;;;4390401;32;20060;-71
2022/09/25 01:33:09;;;;;;;9.13;4.03;;;;;;;;;;4405583;32;20094;-71
2022/09/25 01:35:38;;;;;;;10.63;4.20;;;;;;;;;;4405930;32;20052;-71
2022/09/25 01:38:15;;;;;;;11.50;4.60;;;;;;;;;;4405333;32;20064;-71
2022/09/25 01:40:47;;;;;;;9.82;4.28;;;;;;;;;;4406589;32;20393;-71
2022/09/25 01:43:21;;;;;;;14.27;5.37;;;;;;;;;;4406845;32;20058;-71
2022/09/25 01:45:56;;;;;;;9.20;3.55;;;;;;;;;;4406689;32;20034;-71
2022/09/25 01:48:26;;;;;;;10.15;4.28;;;;;;;;;;4405100;32;20026;-71
2022/09/25 01:50:57;;;;;;;12.88;5.32;;;;;;;;;;4398733;32;20034;-71
2022/09/25 01:53:31;;;;;;;13.38;6.18;;;;;;;;;;4390696;32;20058;-71
2022/09/25 01:56:07;;;;;;;16.30;4.93;;;;;;;;;;4390305;32;20018;-71
2022/09/25 01:58:32;;;;;;;9.32;4.15;;;;;;;;;;4390673;32;20041;-71
2022/09/25 02:01:05;;;;;;;8.60;4.87;;;;;;;;;;4389760;32;20027;-71
2022/09/25 02:03:34;;;;;;;8.20;3.95;;;;;;;;;;4390261;32;20019;-71
2022/09/25 02:06:01;;;;;;;15.20;5.43;;;;;;;;;;4400667;32;20026;-71
2022/09/25 02:08:39;;;;;;;16.58;5.30;;;;;;;;;;4392955;32;20056;-71
2022/09/25 02:11:04;;;;;;;10.88;4.43;;;;;;;;;;4390657;32;20039;-71
2022/09/25 02:13:30;;;;;;;;;;;;;;;;;;4389953;32;20400;-71
2022/09/25 02:15:56;;;;;;;9.75;4.93;;;;;;;;;;4389788;32;19934;-71
2022/09/25 02:21:22;;;;;;;12.35;4.68;;;;;;;;;;4399176;32;20064;-70
2022/09/25 02:24:00;;;;;;;12.63;5.28;;;;;;;;;;4404998;32;20027;-71
2022/09/25 02:26:26;;;;;;;15.57;5.57;;;;;;;;;;4405905;32;20027;-71
2022/09/25 02:28:52;;;;;;;12.18;5.93;;;;;;;;;;4405308;32;20145;-71
2022/09/25 02:31:18;;;;;;;;;;;;;;;;;;4405626;32;20030;-71
2022/09/25 02:33:43;;;;;;;13.20;5.83;;;;;;;;;;4405073;32;20365;-71
2022/09/25 02:36:19;;;;;;;12.57;5.78;;;;;;;;;;4406653;32;20048;-71
2022/09/25 02:38:46;;;;;;;11.63;5.93;;;;;;;;;;4392636;32;20068;-70
2022/09/25 02:41:16;;;;;;;12.95;5.45;;;;;;;;;;4389979;32;20027;-70
2022/09/25 02:43:41;;;;;;;14.55;5.70;;;;;;;;;;4390093;32;20058;-70
2022/09/25 02:46:09;;;;;;;;;;;;;;;;;;4391328;32;20058;-70
2022/09/25 02:48:44;;;;;;;12.15;4.90;;;;;;;;;;4389629;32;20029;-71
2022/09/25 02:51:24;;;;;;;8.43;4.35;;;;;;;;;;4399925;32;20444;-70
2022/09/25 02:54:03;;;;;;;11.70;4.53;;;;;;;;;;4406084;32;20465;-70
2022/09/25 02:56:32;;;;;;;13.02;4.03;;;;;;;;;;4408754;32;20041;-70
2022/09/25 02:58:59;;;;;;;11.25;4.75;;;;;;;;;;4408002;32;20031;-71
2022/09/25 03:01:27;;;;;;;9.30;4.25;;;;;;;;;;4393189;32;20034;-70
2022/09/25 03:03:56;;;;;;;12.37;3.85;;;;;;;;;;4407967;32;20133;-70
2022/09/25 03:06:22;;;;;;;11.80;4.72;;;;;;;;;;4407487;32;20030;-70
2022/09/25 03:08:48;;;;;;;;;;;;;;;;;;4407889;32;20048;-70
2022/09/25 03:11:40;;;;;;;7.45;4.05;;;;;;;;;;4408630;32;19976;-71
2022/09/25 03:14:05;;;;;;;12.37;4.00;;;;;;;;;;4402781;32;20060;-70
2022/09/25 03:16:31;;;;;;;;;;;;;;;;;;4408550;32;20034;-71
2022/09/25 03:18:56;;;;;;;8.13;3.90;;;;;;;;;;4408452;32;19949;-71
2022/09/25 03:22:10;;;;;;;11.38;4.37;;;;;;;;;;4383741;32;20058;-70
2022/09/25 03:24:10;;;;;;;9.13;4.10;;;;;;;;;;4384378;32;20069;-71
2022/09/25 03:26:35;;;;;;;;;;;;;;;;;;4393895;32;20397;-71
2022/09/25 03:29:01;;;;;;;10.73;3.70;;;;;;;;;;4392243;32;20350;-70
2022/09/25 03:31:26;;;;;;;;;;;;;;;;;;4393176;32;20134;-71
2022/09/25 03:33:51;;;;;;;9.95;4.22;;;;;;;;;;4378472;32;19998;-70
2022/09/25 03:36:17;;;;;;;10.43;5.15;;;;;;;;;;4390006;32;20042;-71
2022/09/25 03:38:44;;;;;;;11.98;4.37;;;;;;;;;;4407750;32;20042;-71
2022/09/25 03:41:11;;;;;;;12.77;5.60;;;;;;;;;;4407719;32;20046;-70
2022/09/25 03:43:39;;;;;;;13.73;4.15;;;;;;;;;;4407436;32;20052;-70
2022/09/25 03:46:06;;;;;;;10.75;4.35;;;;;;;;;;4407640;32;20049;-70
2022/09/25 03:48:32;;;;;;;10.02;4.25;;;;;;;;;;4407126;32;20022;-70
2022/09/25 03:50:57;;;;;;;;;;;;;;;;;;4395902;32;20027;-70
2022/09/25 03:53:23;;;;;;;8.25;3.58;;;;;;;;;;4401604;32;19971;-70
2022/09/25 03:55:48;;;;;;;9.30;4.70;;;;;;;;;;4407059;32;20470;-70
2022/09/25 03:58:13;;;;;;;;;;;;;;;;;;4407593;32;20026;-71
2022/09/25 04:00:39;;;;;;;5.95;3.90;;;;;;;;;;4406976;32;19933;-70
2022/09/25 04:03:04;;;;;;;;;;;;;;;;;;4407717;32;20118;-71
2022/09/25 04:05:30;;;;;;;8.15;3.60;;;;;;;;;;4407029;32;19941;-71
2022/09/25 04:07:55;;;;;;;;;;;;;;;;;;4406794;32;20184;-71
2022/09/25 04:10:20;;;;;;;12.10;4.28;;;;;;;;;;4406615;32;19934;-71
2022/09/25 04:12:45;;;;;;;11.68;4.03;;;;;;;;;;4407218;32;20045;-71
2022/09/25 04:15:10;;;;;;;;;;;;;;;;;;4407554;32;20034;-71
2022/09/25 04:17:36;;;;;;;8.68;4.50;;;;;;;;;;4393281;32;19993;-70
2022/09/25 04:20:01;;;;;;;;;;;;;;;;;;4404383;32;20223;-70
2022/09/25 04:22:26;;;;;;;10.90;5.00;;;;;;;;;;4392246;32;19997;-70
2022/09/25 04:24:53;;;;;;;;;;;;;;;;;;4379011;32;20061;-70
2022/09/25 04:27:21;;;;;;;10.43;4.47;;;;;;;;;;4391267;32;19938;-70
2022/09/25 04:29:46;;;;;;;11.27;5.95;;;;;;;;;;4392020;32;20053;-70
2022/09/25 04:34:56;;;;;;;8.63;4.50;;;;;;;;;;4398247;32;19985;-70
2022/09/25 04:37:25;;;;;;;;;;;;;;;;;;4408272;32;20039;-70
2022/09/25 04:39:53;;;;;;;10.75;4.10;;;;;;;;;;4406545;32;19938;-70
2022/09/25 04:42:23;;;;;;;9.57;4.00;;;;;;;;;;4393054;32;20400;-70
2022/09/25 04:44:49;;;;;;;10.15;4.07;;;;;;;;;;4406511;32;20057;-70
2022/09/25 04:47:14;;;;;;;;;;;;;;;;;;4405826;32;20026;-70
2022/09/25 04:49:39;;;;;;;9.63;5.03;;;;;;;;;;4407704;32;20320;-70
2022/09/25 04:52:05;;;;;;;10.20;5.22;;;;;;;;;;4405074;32;20034;-70
2022/09/25 04:54:30;;;;;;;;;;;;;;;;;;4406232;32;20072;-70
2022/09/25 04:56:56;;;;;;;10.50;3.90;;;;;;;;;;4408226;32;19948;-69
2022/09/25 04:59:21;;;;;;;;;;;;;;;;;;4407452;32;20118;-71
2022/09/25 05:02:14;;;;;;;10.10;4.37;;;;;;;;;;4406012;32;19995;-70
2022/09/25 05:04:40;;;;;;;10.15;5.10;;;;;;;;;;4402290;32;20057;-70
2022/09/25 05:07:05;;;;;;;;;;;;;;;;;;4406363;32;20057;-70
2022/09/25 05:09:30;;;;;;;9.75;5.07;;;;;;;;;;4406341;32;19989;-70
2022/09/25 05:11:56;;;;;;;;;;;;;;;;;;4406912;32;20042;-70
2022/09/25 05:14:21;;;;;;;12.13;5.28;;;;;;;;;;4405183;32;19944;-70
2022/09/25 05:16:46;;;;;;;;;;;;;;;;;;4391897;32;20157;-69
2022/09/25 05:19:12;;;;;;;12.15;4.62;;;;;;;;;;4398937;32;19979;-70
2022/09/25 05:21:37;;;;;;;;;;;;;;;;;;4393209;32;20125;-70
2022/09/25 05:24:03;;;;;;;11.45;4.40;;;;;;;;;;4392580;32;19949;-70
2022/09/25 05:26:29;;;;;;;;;;;;;;;;;;4404336;32;20056;-70
2022/09/25 05:28:54;;;;;;;10.50;4.95;;;;;;;;;;4405251;32;19953;-70
2022/09/25 05:31:19;;;;;;;;;;;;;;;;;;4406930;32;20038;-70
2022/09/25 05:33:44;;;;;;;7.40;4.50;;;;;;;;;;4405694;32;19990;-70
2022/09/25 05:36:10;;;;;;;13.45;4.90;;;;;;;;;;4407198;32;20058;-70
2022/09/25 05:38:35;;;;;;;;;;;;;;;;;;4406587;32;20057;-70
2022/09/25 05:41:04;;;;;;;12.82;5.22;;;;;;;;;;4405938;32;19933;-70
2022/09/25 05:43:30;;;;;;;8.25;4.85;;;;;;;;;;4403317;32;20444;-70
2022/09/25 05:45:55;;;;;;;;;;;;;;;;;;4407163;32;20030;-70
2022/09/25 05:48:20;;;;;;;8.93;4.10;;;;;;;;;;4406000;32;19956;-70
2022/09/25 05:50:53;;;;;;;10.90;4.70;;;;;;;;;;4405576;32;20367;-70
2022/09/25 05:53:18;;;;;;;10.48;4.85;;;;;;;;;;4405792;32;20075;-70
2022/09/25 05:55:44;;;;;;;;;;;;;;;;;;4407117;32;20043;-70
2022/09/25 05:58:11;;;;;;;12.80;5.20;;;;;;;;;;4403988;32;19982;-70
2022/09/25 06:00:37;;;;;;;8.98;5.15;;;;;;;;;;4392032;32;20216;-70
2022/09/25 06:03:02;;;;;;;14.55;5.07;;;;;;;;;;4405373;32;20491;-70
2022/09/25 06:05:28;;;;;;;;;;;;;;;;;;4406142;32;20064;-70
2022/09/25 06:07:53;;;;;;;9.18;4.25;;;;;;;;;;4405004;32;19960;-70
2022/09/25 06:10:19;;;;;;;;;;;;;;;;;;4404650;32;20150;-70
2022/09/25 06:12:44;;;;;;;9.27;3.70;;;;;;;;;;4399206;32;19964;-70
2022/09/25 06:15:09;;;;;;;9.55;3.70;;;;;;;;;;4391173;32;20034;-70
2022/09/25 06:17:34;;;;;;;;;;;;;;;;;;4391060;32;20039;-70
2022/09/25 06:20:00;;;;;;;13.02;4.05;;;;;;;;;;4390076;32;20263;-70
2022/09/25 06:22:25;;;;;;;5.20;3.08;;;;;;;;;;4390692;32;20046;-70
2022/09/25 06:24:50;;;;;;;;;;;;;;;;;;4390754;32;20436;-70
2022/09/25 06:27:16;;;;;;;10.15;3.58;;;;;;;;;;4391812;32;19938;-70
2022/09/25 06:29:41;;;;;;;;;;;;;;;;;;4394091;32;20429;-70
2022/09/25 06:32:06;;;;;;;8.23;2.17;;;;;;;;;;4393591;32;20295;-71
2022/09/25 06:34:32;;;;;;;5.60;2.65;;;;;;;;;;4392611;32;20419;-70
2022/09/25 06:36:57;;;;;;;;;;;;;;;;;;4393315;32;20054;-70
2022/09/25 06:39:22;;;;;;;7.25;2.20;;;;;;;;;;4392649;32;19950;-70
2022/09/25 06:41:50;;;;;;;8.80;2.78;;;;;;;;;;4397033;32;20027;-71
2022/09/25 06:44:16;;;;;;;7.05;2.22;;;;;;;;;;4380058;32;20478;-70
2022/09/25 06:46:43;;;;;;;;;;;;;;;;;;4394676;32;20057;-70
2022/09/25 06:49:10;;;;;;;12.02;2.65;;;;;;;;;;4391962;32;19938;-70
2022/09/25 06:51:38;;;;;;;5.93;2.20;;;;;;;;;;4391104;32;20031;-70
2022/09/25 06:54:03;;;;;;;8.35;2.53;;;;;;;;;;4392125;32;20471;-70
2022/09/25 06:56:28;;;;;;;6.47;2.28;;;;;;;;;;4392915;32;20065;-69
2022/09/25 06:58:54;;;;;;;6.35;2.30;;;;;;;;;;4392839;32;20034;-70
2022/09/25 07:01:19;;;;;;;5.00;2.92;;;;;;;;;;4392010;32;20031;-70
2022/09/25 07:03:46;;;;;;;5.05;2.28;;;;;;;;;;4393618;32;20078;-70
2022/09/25 07:06:18;;;;;;;7.60;2.85;;;;;;;;;;4392625;32;20069;-70
2022/09/25 07:08:49;;;;;;;5.37;1.90;;;;;;;;;;4377724;32;20030;-70
2022/09/25 07:11:24;;;;;;;4.18;2.00;;;;;;;;;;4377689;32;20168;-70
2022/09/25 07:13:55;;;;;;;8.67;2.33;;;;;;;;;;4377936;32;20053;-69
2022/09/25 07:16:23;;;;;;;6.53;2.83;;;;;;;;;;4392850;32;20127;-69
2022/09/25 07:18:51;;;;;;;9.52;2.97;;;;;;;;;;4392660;32;20061;-70
2022/09/25 07:21:21;;;;;;;9.45;2.92;;;;;;;;;;4392319;32;20027;-71
2022/09/25 07:23:50;;;;;;;6.57;2.90;;;;;;;;;;4392860;32;20069;-70
2022/09/25 07:26:23;;;;;;;6.57;2.20;;;;;;;;;;4392207;32;20039;-69
2022/09/25 07:28:53;;;;;;;10.20;3.20;;;;;;;;;;4392721;32;20056;-70
2022/09/25 07:31:20;;;;;;;6.97;2.58;;;;;;;;;;4394668;32;20038;-69
2022/09/25 07:33:46;;;;;;;13.00;2.80;;;;;;;;;;4391825;32;20042;-70
2022/09/25 07:36:12;;;;;;;14.35;3.22;;;;;;;;;;4377925;32;20058;-70
2022/09/25 07:38:38;;;;;;;11.18;2.80;;;;;;;;;;4392027;32;20375;-70
2022/09/25 07:41:05;;;;;;;8.45;2.50;;;;;;;;;;4391484;32;20357;-70
2022/09/25 07:43:33;;;;;;;6.22;2.20;;;;;;;;;;4391682;32;20034;-70
2022/09/25 07:45:59;;;;;;;10.00;2.40;;;;;;;;;;4390353;32;20052;-70
2022/09/25 07:48:25;;;;;;;4.45;2.45;;;;;;;;;;4392880;32;20399;-70
2022/09/25 07:50:51;;;;;;;13.80;2.55;;;;;;;;;;4378500;32;20034;-70
2022/09/25 07:53:19;;;;;;;10.52;2.92;;;;;;;;;;4391663;32;20396;-70
2022/09/25 07:55:45;;;;;;;12.48;2.92;;;;;;;;;;4391569;32;20030;-70
2022/09/25 07:58:11;;;;;;;6.55;2.25;;;;;;;;;;4391327;32;20506;-70
2022/09/25 08:00:36;;;;;;;7.25;3.22;;;;;;;;;;4392360;32;20031;-71
2022/09/25 08:03:02;;;;;;;6.97;2.00;;;;;;;;;;4391178;32;20439;-71
2022/09/25 08:05:27;;;;;;;5.47;2.05;;;;;;;;;;4378162;32;20031;-71
2022/09/25 08:07:53;;;;;;;14.75;3.15;;;;;;;;;;4392727;32;20368;-71
2022/09/25 08:10:19;;;;;;;10.13;2.17;;;;;;;;;;4393000;32;20090;-72
2022/09/25 08:12:44;;;;;;;5.70;1.95;;;;;;;;;;4391871;32;20064;-71
2022/09/25 08:15:10;;;;;;;6.43;1.48;;;;;;;;;;4401131;32;20137;-70
2022/09/25 08:17:35;;;;;;;5.18;1.60;;;;;;;;;;4401875;32;20367;-70
2022/09/25 08:20:01;;;;;;;6.35;1.83;;;;;;;;;;4408320;32;20026;-70
2022/09/25 08:22:26;;;;;;;11.12;1.98;;;;;;;;;;4407309;32;20022;-70
2022/09/25 08:24:52;;;;;;;7.82;1.80;;;;;;;;;;4406837;32;20126;-70
2022/09/25 08:27:17;;;;;;;7.80;1.87;;;;;;;;;;4407467;32;20367;-70
2022/09/25 08:29:43;;;;;;;6.45;1.70;;;;;;;;;;4408513;32;20053;-70
2022/09/25 08:32:08;;;;;;;5.05;1.90;;;;;;;;;;4406692;32;20164;-71
2022/09/25 08:34:34;;;;;;;8.55;1.90;;;;;;;;;;4405094;32;20394;-70
2022/09/25 08:36:59;;;;;;;11.75;2.22;;;;;;;;;;4407223;32;20379;-69
2022/09/25 08:39:24;;;;;;;9.13;2.00;;;;;;;;;;4406335;32;20046;-70
2022/09/25 08:41:51;;;;;;;9.05;2.10;;;;;;;;;;4406505;32;20034;-70
2022/09/25 08:44:22;;;;;;;7.12;1.60;;;;;;;;;;4406935;32;20050;-71
2022/09/25 08:49:52;;;;;;;11.40;2.05;;;;;;;;;;4406999;32;20056;-70
2022/09/25 08:52:20;;;;;;;6.40;1.55;;;;;;;;;;4399181;32;20065;-70
2022/09/25 08:54:45;;;;;;;10.70;2.03;;;;;;;;;;4391672;32;20467;-70
2022/09/25 08:57:17;;;;;;;9.52;2.28;;;;;;;;;;4391827;32;20030;-70
2022/09/25 08:59:43;;;;;;;5.43;1.60;;;;;;;;;;4391704;32;20030;-70
2022/09/25 09:02:12;;;;;;;4.87;1.65;;;;;;;;;;4390772;32;20030;-70
2022/09/25 09:04:42;;;;;;;7.78;1.40;;;;;;;;;;4391130;32;20031;-70
2022/09/25 09:07:09;;;;;;;5.68;1.83;;;;;;;;;;4392388;32;20034;-70
2022/09/25 09:10:01;;;;;;;4.05;1.40;;;;;;;;;;4391183;32;20408;-71
2022/09/25 09:12:30;;;;;;;5.78;1.98;;;;;;;;;;4388075;32;20039;-70
2022/09/25 09:15:05;;;;;;;5.22;1.70;;;;;;;;;;4390794;32;20031;-70
2022/09/25 09:17:54;;;;;;;7.95;1.60;;;;;;;;;;4391199;32;20096;-70
2022/09/25 09:20:23;;;;;;;5.07;1.45;;;;;;;;;;4358501;32;20364;-70
2022/09/25 09:22:51;;;;;;;7.47;1.70;;;;;;;;;;4405599;32;20455;-70
2022/09/25 09:25:29;;;;;;;8.38;1.98;;;;;;;;;;4394661;32;20419;-71
2022/09/25 09:28:03;;;;;;;4.90;1.42;;;;;;;;;;4389233;32;20760;-72
2022/09/25 09:30:41;;;;;;;8.95;1.85;;;;;;;;;;4388104;32;20034;-73
2022/09/25 09:33:25;;;;;;;5.75;1.77;;;;;;;;;;4374922;32;20442;-73
2022/09/25 09:36:02;;;;;;;5.30;1.42;;;;;;;;;;4390299;32;20095;-73
2022/09/25 09:38:36;;;;;;;2.30;1.20;;;;;;;;;;4388994;32;20093;-72
2022/09/25 09:41:23;;;;;;;4.40;1.52;;;;;;;;;;4390321;32;20037;-72
2022/09/25 09:43:55;;;;;;;3.67;1.37;;;;;;;;;;4388297;32;20081;-73
2022/09/25 09:46:29;;;;;;;5.43;2.20;;;;;;;;;;4390561;32;20927;-73
2022/09/25 09:49:03;;;;;;;7.60;1.40;;;;;;;;;;4388369;32;20137;-73
2022/09/25 09:51:42;;;;;;;3.40;1.25;;;;;;;;;;4389037;32;20042;-73
2022/09/25 09:54:21;;;;;;;2.33;1.00;;;;;;;;;;4389822;32;20077;-73
2022/09/25 09:56:48;;;;;;;7.05;1.33;;;;;;;;;;4388644;32;20108;-72
2022/09/25 09:59:16;;;;;;;7.05;1.90;;;;;;;;;;4390566;32;20112;-73
2022/09/25 10:01:43;;;;;;;4.80;1.60;;;;;;;;;;4390418;32;20042;-73
2022/09/25 10:04:15;;;;;;;5.00;1.75;;;;;;;;;;4388563;32;20081;-73
2022/09/25 10:07:00;;;;;;;6.15;1.30;;;;;;;;;;4390979;32;20022;-72
2022/09/25 10:09:26;;;;;;;4.10;1.10;;;;;;;;;;4391753;32;20038;-73
2022/09/25 10:11:58;;;;;;;3.95;1.33;;;;;;;;;;4391926;32;20402;-73
2022/09/25 10:18:02;;;;;;;4.22;1.05;;;;;;;;;;4390561;32;20072;-72
2022/09/25 10:20:36;;;;;;;3.20;1.20;;;;;;;;;;4357589;33;20069;-72
2022/09/25 10:23:03;;;;;;;4.25;1.42;;;;;;;;;;4385484;32;20042;-72
2022/09/25 10:25:37;;;;;;;2.25;1.08;;;;;;;;;;4390405;32;20076;-71
2022/09/25 10:28:21;;;;;;;5.10;1.42;;;;;;;;;;4389907;32;20495;-72
2022/09/25 10:30:46;;;;;;;7.05;1.37;;;;;;;;;;4390500;32;20042;-72
2022/09/25 10:33:15;;;;;;;7.90;1.50;;;;;;;;;;4391270;32;20112;-71
2022/09/25 10:35:42;;;;;;;4.45;1.23;;;;;;;;;;4391185;32;20084;-72
2022/09/25 10:38:20;;;;;;;4.50;2.08;;;;;;;;;;4390962;32;20401;-72
2022/09/25 10:40:55;;;;;;;7.12;1.60;;;;;;;;;;4391394;32;20038;-71
2022/09/25 10:43:23;;;;;;;6.03;1.37;;;;;;;;;;4390718;32;20022;-72
2022/09/25 10:45:52;;;;;;;2.65;1.08;;;;;;;;;;4390849;32;20034;-72
2022/09/25 10:51:08;;;;;;;2.92;0.95;;;;;;;;;;4391843;32;20184;-72
2022/09/25 10:53:34;;;;;;;4.43;1.55;;;;;;;;;;4390846;32;20060;-72
2022/09/25 10:56:08;;;;;;;3.45;1.20;;;;;;;;;;4391005;32;20030;-72
2022/09/25 10:58:49;;;;;;;3.65;1.20;;;;;;;;;;4376619;32;20148;-72
2022/09/25 11:01:15;;;;;;;4.10;1.42;;;;;;;;;;4404370;32;20042;-72
2022/09/25 11:03:45;;;;;;;5.68;1.40;;;;;;;;;;4405008;32;20030;-72
2022/09/25 11:06:28;;;;;;;3.08;1.40;;;;;;;;;;4404898;32;20053;-72
2022/09/25 11:09:01;;;;;;;5.18;1.90;;;;;;;;;;4394699;32;20082;-72
2022/09/25 11:11:26;;;;;;;3.05;1.27;;;;;;;;;;4390548;32;20052;-72
2022/09/25 11:13:54;;;;;;;4.97;1.50;;;;;;;;;;4390363;32;20030;-72
2022/09/25 11:16:19;;;;;;;2.75;1.30;;;;;;;;;;4391497;32;20026;-71
2022/09/25 11:18:48;;;;;;;4.75;1.50;;;;;;;;;;4389544;32;20163;-72
2022/09/25 11:21:45;;;;;;;5.32;1.17;;;;;;;;;;4389160;32;20354;-72
2022/09/25 11:27:16;;;;;;;3.12;1.50;;;;;;;;;;4390319;32;20091;-71
2022/09/25 11:29:43;;;;;;;3.03;1.12;;;;;;;;;;4392146;32;20090;-72
2022/09/25 11:32:43;;;;;;;5.43;1.35;;;;;;;;;;4389389;32;20039;-72
2022/09/25 11:35:20;;;;;;;3.37;1.40;;;;;;;;;;4312926;33;20040;-72
2022/09/25 11:37:57;;;;;;;4.72;1.70;;;;;;;;;;4379450;32;20113;-72
2022/09/25 11:46:52;;;;;;;6.65;1.55;;;;;;;;;;4390905;32;20064;-72
2022/09/25 11:49:35;;;;;;;3.42;1.40;;;;;;;;;;4377205;32;20072;-72
2022/09/25 11:52:23;;;;;;;2.53;1.25;;;;;;;;;;4390440;32;20049;-72
2022/09/25 11:55:07;;;;;;;3.45;1.52;;;;;;;;;;4380453;32;20109;-72
2022/09/25 11:58:08;;;;;;;2.17;1.30;;;;;;;;;;4388393;32;20078;-72
2022/09/25 12:00:53;;;;;;;5.62;1.60;;;;;;;;;;4327901;33;20032;-72
2022/09/25 12:03:30;;;;;;;4.65;1.65;;;;;;;;;;4384973;32;20076;-73
2022/09/25 12:06:13;;;;;;;4.22;1.10;;;;;;;;;;4390448;32;20330;-73
2022/09/25 12:08:57;;;;;;;5.18;1.20;;;;;;;;;;4390554;32;20104;-72
2022/09/25 12:11:51;;;;;;;2.85;1.20;;;;;;;;;;4390980;32;20314;-73
2022/09/25 12:14:26;;;;;;;2.37;1.15;;;;;;;;;;4390263;32;20034;-73
2022/09/25 12:16:57;;;;;;;5.03;1.52;;;;;;;;;;4391601;32;20030;-72
2022/09/25 12:19:34;;;;;;;2.65;0.98;;;;;;;;;;4392460;32;20022;-73
2022/09/25 12:22:09;;;;;;;2.67;1.30;;;;;;;;;;4392319;32;20065;-73
2022/09/25 12:24:38;;;;;;;2.72;1.10;;;;;;;;;;4391567;32;20030;-72
2022/09/25 12:27:20;;;;;;;3.50;1.10;;;;;;;;;;4391443;32;20026;-73
2022/09/25 12:29:49;;;;;;;2.37;1.30;;;;;;;;;;4392542;32;20058;-73
2022/09/25 12:32:27;;;;;;;4.35;1.42;;;;;;;;;;4390701;32;20437;-73
2022/09/25 12:34:54;;;;;;;2.42;1.02;;;;;;;;;;4391218;32;20502;-73
2022/09/25 12:37:42;;;;;;;5.47;1.10;;;;;;;;;;4390330;32;20117;-72
2022/09/25 12:40:13;;;;;;;2.80;1.20;;;;;;;;;;4390073;32;20145;-71
2022/09/25 12:42:41;;;;;;;4.28;1.10;;;;;;;;;;4389570;32;20104;-72
2022/09/25 12:45:19;;;;;;;2.72;1.12;;;;;;;;;;4392153;32;20307;-72
2022/09/25 12:47:59;;;;;;;1.40;0.80;;;;;;;;;;4401072;32;20466;-72
2022/09/25 12:50:30;;;;;;;6.65;1.52;;;;;;;;;;4407369;32;20041;-72
2022/09/25 12:52:56;;;;;;;1.73;0.90;;;;;;;;;;4407998;32;20018;-72
2022/09/25 12:55:24;;;;;;;5.93;1.30;;;;;;;;;;4407026;32;20026;-72
2022/09/25 12:57:54;;;;;;;3.03;1.30;;;;;;;;;;4405946;32;20402;-72
2022/09/25 13:00:24;;;;;;;2.58;1.10;;;;;;;;;;4401859;32;20031;-72
2022/09/25 13:02:54;;;;;;;3.47;1.08;;;;;;;;;;4391167;32;20026;-72
2022/09/25 13:05:30;;;;;;;3.58;1.20;;;;;;;;;;4389959;32;20097;-73
2022/09/25 13:08:06;;;;;;;2.25;0.95;;;;;;;;;;4389485;32;20034;-73
2022/09/25 13:10:50;;;;;;;3.00;1.55;;;;;;;;;;4389359;32;20023;-73
2022/09/25 13:13:18;;;;;;;3.78;1.80;;;;;;;;;;4388677;32;20079;-73
2022/09/25 13:15:47;;;;;;;2.25;1.10;;;;;;;;;;4387295;32;20372;-73
2022/09/25 13:18:20;;;;;;;3.10;1.20;;;;;;;;;;4385044;32;20086;-74
2022/09/25 13:23:52;;;;;;;3.97;1.45;;;;;;;;;;4312610;33;20043;-73
2022/09/25 13:26:21;;;;;;;4.35;1.37;;;;;;;;;;4385639;32;20050;-74
2022/09/25 13:28:49;;;;;;;2.58;1.10;;;;;;;;;;4388613;32;20384;-73
2022/09/25 13:31:26;;;;;;;3.00;1.00;;;;;;;;;;4388882;32;20031;-73
2022/09/25 13:33:55;;;;;;;2.60;1.27;;;;;;;;;;4390504;32;20027;-73
2022/09/25 13:36:22;;;;;;;2.70;1.20;;;;;;;;;;4389731;32;20046;-73
2022/09/25 13:41:33;;;;;;;4.37;1.20;;;;;;;;;;4389860;32;20076;-72
2022/09/25 13:44:19;;;;;;;3.10;1.40;;;;;;;;;;4373746;32;20337;-74
2022/09/25 13:46:45;;;;;;;4.43;1.42;;;;;;;;;;4389160;32;20045;-73
2022/09/25 13:49:29;;;;;;;3.58;1.27;;;;;;;;;;4390868;32;20364;-72
2022/09/25 13:51:54;;;;;;;1.62;1.00;;;;;;;;;;4389778;32;20364;-72
2022/09/25 13:54:19;;;;;;;3.47;1.33;;;;;;;;;;4377162;32;20022;-73
2022/09/25 13:56:47;;;;;;;5.05;1.30;;;;;;;;;;4390373;32;20098;-73
2022/09/25 13:59:13;;;;;;;4.07;1.20;;;;;;;;;;4389451;32;20042;-73
2022/09/25 14:01:42;;;;;;;5.30;1.23;;;;;;;;;;4375980;32;20390;-73
2022/09/25 14:04:09;;;;;;;3.00;1.12;;;;;;;;;;4392385;32;20413;-72
2022/09/25 14:06:38;;;;;;;1.95;1.02;;;;;;;;;;4405293;32;20019;-73
2022/09/25 14:09:29;;;;;;;2.12;0.90;;;;;;;;;;4398137;32;20088;-73
2022/09/25 14:11:54;;;;;;;1.23;0.90;;;;;;;;;;4387487;32;20038;-72
2022/09/25 14:14:31;;;;;;;4.87;1.33;;;;;;;;;;4376473;32;20065;-73
2022/09/25 14:16:57;;;;;;;2.72;0.90;;;;;;;;;;4390273;32;20392;-73
2022/09/25 14:19:29;;;;;;;3.12;1.05;;;;;;;;;;4394788;32;20054;-73
2022/09/25 14:21:54;;;;;;;2.08;1.20;;;;;;;;;;4385133;32;20030;-73
2022/09/25 14:24:22;;;;;;;0.88;0.70;;;;;;;;;;4377176;32;20364;-73
2022/09/25 14:26:47;;;;;;;1.85;1.00;;;;;;;;;;4390602;32;20054;-72
2022/09/25 14:29:35;;;;;;;1.65;0.90;;;;;;;;;;4389828;32;20428;-73
2022/09/25 14:32:15;;;;;;;2.60;1.08;;;;;;;;;;4388747;32;20035;-73
2022/09/25 14:34:52;;;;;;;2.95;1.20;;;;;;;;;;4386584;32;20100;-73
2022/09/25 14:37:46;;;;;;;;;;;;;;;;;;;;;
2022/09/25 14:40:22;;;;;;;2.67;1.35;;;;;;;;;;4387746;32;20082;-72
2022/09/25 14:43:00;;;;;;;2.40;1.05;;;;;;;;;;4389138;32;20030;-72
2022/09/25 14:45:33;;;;;;;4.00;1.15;;;;;;;;;;4390185;32;20065;-72
2022/09/25 14:47:59;;;;;;;2.92;1.40;;;;;;;;;;4390308;32;20080;-71
2022/09/25 14:50:28;;;;;;;2.45;1.15;;;;;;;;;;4392186;32;20026;-71
2022/09/25 14:52:56;;;;;;;5.25;1.30;;;;;;;;;;4392406;32;20056;-70
2022/09/25 14:55:23;;;;;;;2.92;1.27;;;;;;;;;;4379732;32;20426;-71
2022/09/25 14:57:49;;;;;;;4.57;1.20;;;;;;;;;;4393475;32;20378;-71
2022/09/25 15:00:16;;;;;;;3.37;1.27;;;;;;;;;;4392349;32;20026;-72
2022/09/25 15:02:43;;;;;;;5.90;1.60;;;;;;;;;;4406626;32;20103;-72
2022/09/25 15:05:16;;;;;;;5.03;1.35;;;;;;;;;;4385651;32;20078;-72
2022/09/25 15:07:42;;;;;;;2.47;1.48;;;;;;;;;;4392632;32;20372;-72
2022/09/25 15:10:23;;;;;;;3.60;1.10;;;;;;;;;;4391084;32;20086;-72
2022/09/25 15:12:48;;;;;;;5.12;2.05;;;;;;;;;;4391763;32;20060;-72
2022/09/25 15:15:15;;;;;;;2.60;1.20;;;;;;;;;;4391886;32;20043;-72
2022/09/25 15:17:46;;;;;;;3.95;1.45;;;;;;;;;;4389830;32;20050;-72
2022/09/25 15:20:13;;;;;;;5.10;2.20;;;;;;;;;;4391649;32;20330;-72
2022/09/25 15:22:39;;;;;;;3.03;1.77;;;;;;;;;;4391546;32;20418;-71
2022/09/25 15:25:06;;;;;;;5.20;1.70;;;;;;;;;;4391303;32;20129;-70
2022/09/25 15:27:33;;;;;;;5.18;2.00;;;;;;;;;;4390995;32;20054;-71
2022/09/25 15:29:59;;;;;;;2.80;1.45;;;;;;;;;;4392189;32;20053;-72
2022/09/25 15:32:37;;;;;;;5.82;1.77;;;;;;;;;;4391519;32;20026;-72
2022/09/25 15:35:06;;;;;;;3.03;1.52;;;;;;;;;;4388641;32;20034;-72
2022/09/25 15:37:31;;;;;;;1.48;1.12;;;;;;;;;;4384313;32;20092;-72
2022/09/25 15:39:59;;;;;;;2.87;1.35;;;;;;;;;;4390626;32;20046;-72
2022/09/25 15:42:25;;;;;;;4.60;1.48;;;;;;;;;;4391057;32;20030;-72